createdAt,value
2023-05-10T00:00:16.393Z,952.0630
2023-05-10T00:01:17.560Z,952.0677
2023-05-10T00:02:19.022Z,952.0608
2023-05-10T00:03:20.435Z,952.0569
2023-05-10T00:04:21.912Z,952.0715
2023-05-10T00:05:23.276Z,952.0292
2023-05-10T00:06:25.295Z,952.0192
2023-05-10T00:07:26.094Z,952.0239
2023-05-10T00:08:27.552Z,952.0054
2023-05-10T00:09:28.925Z,951.9962
2023-05-10T00:10:30.366Z,952.0000
2023-05-10T00:11:31.824Z,952.0108
2023-05-10T00:12:33.201Z,952.0139
2023-05-10T00:13:34.690Z,952.0131
2023-05-10T00:14:36.034Z,952.0354
2023-05-10T00:15:37.517Z,952.0515
2023-05-10T00:16:38.972Z,952.0369
2023-05-10T00:17:40.421Z,952.0331
2023-05-10T00:18:41.631Z,952.0477
2023-05-10T00:19:43.176Z,952.0608
2023-05-10T00:20:44.589Z,952.0461
2023-05-10T00:21:46.079Z,952.0762
2023-05-10T00:22:47.486Z,952.0615
2023-05-10T00:23:48.943Z,952.0777
2023-05-10T00:24:50.321Z,952.0923
2023-05-10T00:25:52.373Z,952.0792
2023-05-10T00:26:53.140Z,952.1108
2023-05-10T00:27:54.613Z,952.1423
2023-05-10T00:28:55.940Z,952.1769
2023-05-10T00:29:57.418Z,952.1554
2023-05-10T00:30:58.849Z,952.1531
2023-05-10T00:32:00.347Z,952.1485
2023-05-10T00:33:01.744Z,952.1415
2023-05-10T00:34:03.197Z,952.1469
2023-05-10T00:35:04.600Z,952.1870
2023-05-10T00:36:05.966Z,952.1915
2023-05-10T00:37:07.385Z,952.1892
2023-05-10T00:38:08.821Z,952.2023
2023-05-10T00:39:10.163Z,952.2008
2023-05-10T00:40:11.637Z,952.2039
2023-05-10T00:41:13.821Z,952.2123
2023-05-10T00:42:14.539Z,952.2223
2023-05-10T00:43:15.873Z,952.2369
2023-05-10T00:44:17.345Z,952.2346
2023-05-10T00:45:18.862Z,952.2454
2023-05-10T00:46:20.349Z,952.2408
2023-05-10T00:47:21.700Z,952.2654
2023-05-10T00:48:23.195Z,952.2677
2023-05-10T00:49:24.548Z,952.2923
2023-05-10T00:50:25.893Z,952.3170
2023-05-10T00:51:27.378Z,952.3069
2023-05-10T00:52:28.848Z,952.3123
2023-05-10T00:53:30.190Z,952.3085
2023-05-10T00:54:31.635Z,952.3100
2023-05-10T00:55:33.033Z,952.3400
2023-05-10T00:56:34.526Z,952.3685
2023-05-10T00:57:35.887Z,952.3815
2023-05-10T00:58:37.200Z,952.3553
2023-05-10T00:59:38.711Z,952.3692
2023-05-10T01:00:40.150Z,952.3569
2023-05-10T01:01:41.601Z,952.3677
2023-05-10T01:02:43.071Z,952.3561
2023-05-10T01:03:44.399Z,952.3723
2023-05-10T01:04:45.851Z,952.3715
2023-05-10T01:05:47.242Z,952.3831
2023-05-10T01:06:48.785Z,952.3885
2023-05-10T01:07:50.124Z,952.3715
2023-05-10T01:08:51.555Z,952.3561
2023-05-10T01:09:52.917Z,952.3469
2023-05-10T01:10:54.373Z,952.3669
2023-05-10T01:11:55.815Z,952.3915
2023-05-10T01:12:57.340Z,952.4023
2023-05-10T01:13:58.704Z,952.4084
2023-05-10T01:15:00.162Z,952.3985
2023-05-10T01:16:01.504Z,952.3908
2023-05-10T01:17:02.913Z,952.3792
2023-05-10T01:18:04.317Z,952.3885
2023-05-10T01:19:05.763Z,952.3977
2023-05-10T01:20:07.144Z,952.3969
2023-05-10T01:21:08.592Z,952.4000
2023-05-10T01:22:09.993Z,952.4031
2023-05-10T01:23:12.366Z,952.3577
2023-05-10T01:24:12.837Z,952.3439
2023-05-10T01:25:14.292Z,952.3546
2023-05-10T01:26:15.720Z,952.3808
2023-05-10T01:27:17.165Z,952.3954
2023-05-10T01:28:18.543Z,952.4246
2023-05-10T01:29:19.976Z,952.4362
2023-05-10T01:30:22.187Z,952.4330
2023-05-10T01:31:22.901Z,952.4285
2023-05-10T01:32:24.281Z,952.4408
2023-05-10T01:33:25.600Z,952.4315
2023-05-10T01:34:27.062Z,952.4562
2023-05-10T01:35:28.546Z,952.4562
2023-05-10T01:36:29.962Z,952.4708
2023-05-10T01:37:31.395Z,952.4808
2023-05-10T01:38:32.762Z,952.4654
2023-05-10T01:39:34.224Z,952.4500
2023-05-10T01:40:35.598Z,952.4508
2023-05-10T01:41:37.037Z,952.4615
2023-05-10T01:42:38.477Z,952.4661
2023-05-10T01:43:39.944Z,952.4715
2023-05-10T01:44:41.290Z,952.4830
2023-05-10T01:45:42.751Z,952.4954
2023-05-10T01:46:44.157Z,952.4731
2023-05-10T01:47:45.681Z,952.4385
2023-05-10T01:48:47.043Z,952.4400
2023-05-10T01:49:48.491Z,952.4446
2023-05-10T01:50:49.755Z,952.4661
2023-05-10T01:51:51.375Z,952.4592
2023-05-10T01:52:53.327Z,952.4753
2023-05-10T01:53:54.140Z,952.4830
2023-05-10T01:54:55.503Z,952.4808
2023-05-10T01:55:57.023Z,952.4592
2023-05-10T01:56:58.436Z,952.4577
2023-05-10T01:57:59.760Z,952.4838
2023-05-10T01:59:01.152Z,952.5031
2023-05-10T02:00:02.678Z,952.5046
2023-05-10T02:01:04.065Z,952.5108
2023-05-10T02:02:05.525Z,952.5162
2023-05-10T02:03:07.026Z,952.4869
2023-05-10T02:04:08.468Z,952.4585
2023-05-10T02:05:09.686Z,952.4408
2023-05-10T02:06:11.284Z,952.4454
2023-05-10T02:07:12.584Z,952.4554
2023-05-10T02:08:14.062Z,952.4539
2023-05-10T02:09:15.484Z,952.4592
2023-05-10T02:10:17.098Z,952.4769
2023-05-10T02:11:18.192Z,952.4930
2023-05-10T02:12:19.726Z,952.4569
2023-05-10T02:13:21.251Z,952.4669
2023-05-10T02:14:22.577Z,952.4738
2023-05-10T02:15:24.028Z,952.5000
2023-05-10T02:16:25.452Z,952.5139
2023-05-10T02:17:26.836Z,952.5239
2023-05-10T02:18:28.269Z,952.5139
2023-05-10T02:19:29.782Z,952.4954
2023-05-10T02:20:31.136Z,952.4615
2023-05-10T02:21:32.555Z,952.4761
2023-05-10T02:22:33.886Z,952.4684
2023-05-10T02:23:35.381Z,952.4830
2023-05-10T02:24:36.780Z,952.4923
2023-05-10T02:25:38.092Z,952.4992
2023-05-10T02:26:39.616Z,952.4992
2023-05-10T02:27:41.115Z,952.4861
2023-05-10T02:28:42.428Z,952.4677
2023-05-10T02:29:43.936Z,952.4623
2023-05-10T02:30:45.294Z,952.4808
2023-05-10T02:31:46.741Z,952.4908
2023-05-10T02:32:48.139Z,952.4900
2023-05-10T02:33:49.582Z,952.4785
2023-05-10T02:34:50.920Z,952.4608
2023-05-10T02:35:52.407Z,952.4492
2023-05-10T02:36:53.810Z,952.4539
2023-05-10T02:37:55.279Z,952.4354
2023-05-10T02:38:56.628Z,952.4431
2023-05-10T02:39:58.130Z,952.4577
2023-05-10T02:40:59.480Z,952.4800
2023-05-10T02:42:00.830Z,952.4908
2023-05-10T02:43:02.405Z,952.5000
2023-05-10T02:44:03.750Z,952.4954
2023-05-10T02:45:05.203Z,952.5031
2023-05-10T02:46:06.631Z,952.4785
2023-05-10T02:47:07.972Z,952.4269
2023-05-10T02:48:09.538Z,952.4061
2023-05-10T02:49:10.792Z,952.4100
2023-05-10T02:50:12.307Z,952.4123
2023-05-10T02:51:14.389Z,952.4338
2023-05-10T02:52:15.157Z,952.4539
2023-05-10T02:53:16.514Z,952.4716
2023-05-10T02:54:17.888Z,952.4738
2023-05-10T02:55:19.416Z,952.4623
2023-05-10T02:56:20.916Z,952.4077
2023-05-10T02:57:22.276Z,952.3746
2023-05-10T02:58:23.737Z,952.3823
2023-05-10T02:59:25.074Z,952.4023
2023-05-10T03:00:26.638Z,952.4277
2023-05-10T03:01:27.990Z,952.4562
2023-05-10T03:02:29.346Z,952.4592
2023-05-10T03:03:30.706Z,952.4438
2023-05-10T03:04:32.294Z,952.4362
2023-05-10T03:05:33.649Z,952.4330
2023-05-10T03:06:35.027Z,952.4415
2023-05-10T03:07:36.424Z,952.4623
2023-05-10T03:08:37.963Z,952.4753
2023-05-10T03:09:39.282Z,952.4654
2023-05-10T03:10:40.648Z,952.4654
2023-05-10T03:11:42.128Z,952.4846
2023-05-10T03:12:43.595Z,952.4962
2023-05-10T03:13:44.934Z,952.5215
2023-05-10T03:14:46.388Z,952.5031
2023-05-10T03:15:48.389Z,952.5023
2023-05-10T03:16:49.346Z,952.5239
2023-05-10T03:17:50.727Z,952.5492
2023-05-10T03:18:52.157Z,952.5600
2023-05-10T03:19:53.438Z,952.5762
2023-05-10T03:20:54.988Z,952.6053
2023-05-10T03:21:56.377Z,952.5923
2023-05-10T03:22:57.817Z,952.6046
2023-05-10T03:23:59.178Z,952.6053
2023-05-10T03:25:00.555Z,952.6292
2023-05-10T03:26:02.070Z,952.6561
2023-05-10T03:27:03.519Z,952.6738
2023-05-10T03:28:04.925Z,952.6746
2023-05-10T03:29:06.322Z,952.6830
2023-05-10T03:30:07.715Z,952.6900
2023-05-10T03:31:09.139Z,952.7047
2023-05-10T03:32:10.658Z,952.7015
2023-05-10T03:33:12.068Z,952.6761
2023-05-10T03:34:13.388Z,952.6669
2023-05-10T03:35:14.858Z,952.6830
2023-05-10T03:36:16.235Z,952.6854
2023-05-10T03:37:17.813Z,952.6646
2023-05-10T03:38:19.177Z,952.6669
2023-05-10T03:39:20.581Z,952.6877
2023-05-10T03:40:21.930Z,952.6892
2023-05-10T03:41:23.435Z,952.6892
2023-05-10T03:42:24.812Z,952.6577
2023-05-10T03:43:26.243Z,952.6600
2023-05-10T03:44:27.628Z,952.6661
2023-05-10T03:45:28.938Z,952.6730
2023-05-10T03:46:30.492Z,952.7015
2023-05-10T03:47:31.976Z,952.7108
2023-05-10T03:48:33.326Z,952.7253
2023-05-10T03:49:34.780Z,952.7154
2023-05-10T03:50:36.134Z,952.7054
2023-05-10T03:51:37.567Z,952.7338
2023-05-10T03:52:39.936Z,952.7631
2023-05-10T03:53:40.378Z,952.7723
2023-05-10T03:54:41.844Z,952.7754
2023-05-10T03:55:43.272Z,952.7854
2023-05-10T03:56:44.671Z,952.7992
2023-05-10T03:57:46.161Z,952.8038
2023-05-10T03:58:47.525Z,952.7792
2023-05-10T03:59:48.941Z,952.7608
2023-05-10T04:00:50.326Z,952.7685
2023-05-10T04:01:51.814Z,952.7916
2023-05-10T04:02:53.314Z,952.7900
2023-05-10T04:03:54.750Z,952.7846
2023-05-10T04:04:56.005Z,952.7823
2023-05-10T04:05:57.532Z,952.7762
2023-05-10T04:06:58.910Z,952.7570
2023-05-10T04:08:00.402Z,952.7523
2023-05-10T04:09:02.375Z,952.7608
2023-05-10T04:10:03.214Z,952.7816
2023-05-10T04:11:04.492Z,952.7892
2023-05-10T04:12:06.491Z,952.7977
2023-05-10T04:13:07.699Z,952.8062
2023-05-10T04:14:08.994Z,952.8023
2023-05-10T04:15:10.283Z,952.7747
2023-05-10T04:16:11.823Z,952.7769
2023-05-10T04:17:13.169Z,952.7739
2023-05-10T04:18:14.621Z,952.7792
2023-05-10T04:19:16.028Z,952.7731
2023-05-10T04:20:17.625Z,952.7792
2023-05-10T04:21:18.825Z,952.7931
2023-05-10T04:22:20.294Z,952.7769
2023-05-10T04:23:21.765Z,952.7570
2023-05-10T04:24:23.155Z,952.7462
2023-05-10T04:25:24.588Z,952.7577
2023-05-10T04:26:25.923Z,952.7777
2023-05-10T04:27:27.372Z,952.7715
2023-05-10T04:28:28.773Z,952.7715
2023-05-10T04:29:30.201Z,952.7808
2023-05-10T04:30:31.676Z,952.7915
2023-05-10T04:31:33.133Z,952.7700
2023-05-10T04:32:35.040Z,952.7562
2023-05-10T04:33:35.925Z,952.7446
2023-05-10T04:34:37.382Z,952.7670
2023-05-10T04:35:38.850Z,952.7723
2023-05-10T04:36:40.224Z,952.7854
2023-05-10T04:37:41.673Z,952.7869
2023-05-10T04:38:43.025Z,952.8177
2023-05-10T04:39:45.459Z,952.8192
2023-05-10T04:40:45.899Z,952.8170
2023-05-10T04:41:47.327Z,952.8108
2023-05-10T04:42:48.745Z,952.8331
2023-05-10T04:43:50.178Z,952.8446
2023-05-10T04:44:51.586Z,952.8469
2023-05-10T04:45:53.036Z,952.8416
2023-05-10T04:46:54.511Z,952.8292
2023-05-10T04:47:56.001Z,952.8162
2023-05-10T04:48:57.334Z,952.8192
2023-05-10T04:49:58.826Z,952.8323
2023-05-10T04:51:00.142Z,952.8553
2023-05-10T04:52:01.671Z,952.8685
2023-05-10T04:53:03.071Z,952.8792
2023-05-10T04:54:06.626Z,952.8969
2023-05-10T04:55:06.907Z,952.9046
2023-05-10T04:56:07.266Z,952.8915
2023-05-10T04:57:08.670Z,952.8900
2023-05-10T04:58:10.128Z,952.9192
2023-05-10T04:59:11.583Z,952.9515
2023-05-10T05:00:12.999Z,952.9684
2023-05-10T05:01:14.383Z,952.9823
2023-05-10T05:02:15.890Z,952.9900
2023-05-10T05:03:17.266Z,952.9777
2023-05-10T05:04:18.618Z,952.9700
2023-05-10T05:05:20.068Z,952.9838
2023-05-10T05:06:21.526Z,952.9962
2023-05-10T05:07:22.845Z,953.0177
2023-05-10T05:08:24.385Z,953.0162
2023-05-10T05:09:25.728Z,953.0354
2023-05-10T05:10:27.134Z,953.0385
2023-05-10T05:11:29.465Z,953.0285
2023-05-10T05:12:30.034Z,953.0400
2023-05-10T05:13:31.458Z,953.0592
2023-05-10T05:14:32.849Z,953.0754
2023-05-10T05:15:34.265Z,953.0908
2023-05-10T05:16:35.865Z,953.0885
2023-05-10T05:17:37.219Z,953.0823
2023-05-10T05:18:38.584Z,953.0731
2023-05-10T05:19:39.990Z,953.0762
2023-05-10T05:20:42.557Z,953.1061
2023-05-10T05:21:42.867Z,953.1385
2023-05-10T05:22:44.298Z,953.1646
2023-05-10T05:23:45.678Z,953.1985
2023-05-10T05:24:47.198Z,953.1908
2023-05-10T05:25:48.525Z,953.1692
2023-05-10T05:26:50.057Z,953.1646
2023-05-10T05:27:51.423Z,953.1823
2023-05-10T05:28:52.767Z,953.2092
2023-05-10T05:29:54.239Z,953.2508
2023-05-10T05:30:55.859Z,953.2585
2023-05-10T05:31:57.237Z,953.2277
2023-05-10T05:32:58.541Z,953.1785
2023-05-10T05:33:59.956Z,953.1623
2023-05-10T05:35:01.449Z,953.1900
2023-05-10T05:36:02.876Z,953.2216
2023-05-10T05:37:04.252Z,953.2631
2023-05-10T05:38:05.653Z,953.2715
2023-05-10T05:39:06.924Z,953.2892
2023-05-10T05:40:08.373Z,953.2531
2023-05-10T05:41:09.937Z,953.2292
2023-05-10T05:42:11.409Z,953.2330
2023-05-10T05:43:13.230Z,953.2639
2023-05-10T05:44:14.071Z,953.2923
2023-05-10T05:45:15.896Z,953.3069
2023-05-10T05:46:17.033Z,953.2985
2023-05-10T05:47:18.462Z,953.2631
2023-05-10T05:48:19.802Z,953.2531
2023-05-10T05:49:21.264Z,953.2700
2023-05-10T05:50:22.649Z,953.2916
2023-05-10T05:51:24.142Z,953.3092
2023-05-10T05:52:25.602Z,953.3331
2023-05-10T05:53:26.905Z,953.3439
2023-05-10T05:54:28.330Z,953.3131
2023-05-10T05:55:29.687Z,953.2500
2023-05-10T05:56:31.251Z,953.2400
2023-05-10T05:57:32.668Z,953.2385
2023-05-10T05:58:34.189Z,953.2454
2023-05-10T05:59:35.480Z,953.2369
2023-05-10T06:00:36.880Z,953.2238
2023-05-10T06:01:38.371Z,953.2392
2023-05-10T06:02:39.940Z,953.3123
2023-05-10T06:03:41.208Z,953.3646
2023-05-10T06:04:44.689Z,953.3969
2023-05-10T06:05:44.110Z,953.4169
2023-05-10T06:06:45.405Z,953.3923
2023-05-10T06:07:46.852Z,953.4023
2023-05-10T06:08:48.219Z,953.4008
2023-05-10T06:09:49.686Z,953.4254
2023-05-10T06:10:51.096Z,953.5038
2023-05-10T06:11:52.543Z,953.5254
2023-05-10T06:12:53.928Z,953.5108
2023-05-10T06:13:55.253Z,953.4885
2023-05-10T06:14:56.731Z,953.5085
2023-05-10T06:15:58.144Z,953.5262
2023-05-10T06:16:59.626Z,953.5662
2023-05-10T06:18:01.046Z,953.5984
2023-05-10T06:19:02.333Z,953.6085
2023-05-10T06:20:03.856Z,953.6377
2023-05-10T06:21:05.186Z,953.6323
2023-05-10T06:22:06.719Z,953.6285
2023-05-10T06:23:08.043Z,953.6477
2023-05-10T06:24:09.655Z,953.6938
2023-05-10T06:25:10.879Z,953.7208
2023-05-10T06:26:12.309Z,953.7308
2023-05-10T06:27:13.812Z,953.7054
2023-05-10T06:28:15.234Z,953.6985
2023-05-10T06:29:16.609Z,953.7223
2023-05-10T06:30:18.222Z,953.7354
2023-05-10T06:31:19.518Z,953.7292
2023-05-10T06:32:20.920Z,953.7408
2023-05-10T06:33:22.311Z,953.6969
2023-05-10T06:34:23.755Z,953.6823
2023-05-10T06:35:25.159Z,953.7069
2023-05-10T06:36:26.689Z,953.7423
2023-05-10T06:37:28.147Z,953.7323
2023-05-10T06:38:29.641Z,953.7523
2023-05-10T06:39:30.878Z,953.7531
2023-05-10T06:40:32.847Z,953.6723
2023-05-10T06:41:33.689Z,953.6977
2023-05-10T06:42:35.311Z,953.7477
2023-05-10T06:43:36.631Z,953.7238
2023-05-10T06:44:37.922Z,953.7854
2023-05-10T06:45:39.346Z,953.7731
2023-05-10T06:46:40.772Z,953.7323
2023-05-10T06:47:42.255Z,953.7639
2023-05-10T06:48:43.718Z,953.7784
2023-05-10T06:49:45.009Z,953.8208
2023-05-10T06:50:46.534Z,953.8000
2023-05-10T06:51:47.913Z,953.7700
2023-05-10T06:52:50.214Z,953.8215
2023-05-10T06:53:51.142Z,953.8254
2023-05-10T06:54:52.216Z,953.8423
2023-05-10T06:55:53.586Z,953.8307
2023-05-10T06:56:55.057Z,953.7908
2023-05-10T06:57:56.494Z,953.7969
2023-05-10T06:58:57.916Z,953.8246
2023-05-10T06:59:59.286Z,953.8377
2023-05-10T07:01:00.804Z,953.7985
2023-05-10T07:02:02.180Z,953.7708
2023-05-10T07:03:03.644Z,953.7953
2023-05-10T07:04:04.960Z,953.8362
2023-05-10T07:05:06.474Z,953.8254
2023-05-10T07:06:11.356Z,953.7723
2023-05-10T07:07:09.323Z,953.7742
2023-05-10T07:08:10.747Z,953.7869
2023-05-10T07:09:12.213Z,953.8246
2023-05-10T07:10:13.531Z,953.8254
2023-05-10T07:11:14.998Z,953.7777
2023-05-10T07:12:16.729Z,953.7670
2023-05-10T07:13:17.915Z,953.7938
2023-05-10T07:14:19.287Z,953.8292
2023-05-10T07:15:20.763Z,953.8331
2023-05-10T07:16:22.058Z,953.7792
2023-05-10T07:17:23.593Z,953.7816
2023-05-10T07:18:24.926Z,953.8185
2023-05-10T07:19:26.388Z,953.8347
2023-05-10T07:20:27.814Z,953.7931
2023-05-10T07:21:29.293Z,953.7100
2023-05-10T07:22:30.596Z,953.7269
2023-05-10T07:23:32.123Z,953.7515
2023-05-10T07:24:33.456Z,953.7831
2023-05-10T07:25:34.932Z,953.7985
2023-05-10T07:26:36.404Z,953.7631
2023-05-10T07:27:37.743Z,953.8092
2023-05-10T07:28:39.300Z,953.8538
2023-05-10T07:29:40.615Z,953.8746
2023-05-10T07:30:42.089Z,953.9116
2023-05-10T07:31:43.433Z,953.9023
2023-05-10T07:32:44.896Z,953.8516
2023-05-10T07:33:46.283Z,953.8785
2023-05-10T07:34:47.732Z,953.9084
2023-05-10T07:35:49.138Z,953.9300
2023-05-10T07:36:50.571Z,953.9562
2023-05-10T07:37:51.997Z,953.9746
2023-05-10T07:38:53.433Z,953.9754
2023-05-10T07:39:54.922Z,953.9169
2023-05-10T07:40:56.314Z,953.9069
2023-05-10T07:41:57.589Z,953.9146
2023-05-10T07:42:59.162Z,953.9308
2023-05-10T07:44:00.589Z,953.9623
2023-05-10T07:45:02.032Z,953.9861
2023-05-10T07:46:03.501Z,954.0000
2023-05-10T07:47:04.803Z,953.9569
2023-05-10T07:48:06.387Z,953.9100
2023-05-10T07:49:07.585Z,953.9346
2023-05-10T07:50:09.217Z,953.9631
2023-05-10T07:51:10.630Z,953.9708
2023-05-10T07:52:12.051Z,953.9677
2023-05-10T07:53:13.424Z,954.0154
2023-05-10T07:54:14.887Z,954.0361
2023-05-10T07:55:16.533Z,953.9507
2023-05-10T07:56:17.741Z,953.9492
2023-05-10T07:57:19.013Z,953.9600
2023-05-10T07:58:20.498Z,953.9761
2023-05-10T07:59:21.980Z,954.0023
2023-05-10T08:00:23.470Z,954.0162
2023-05-10T08:01:24.819Z,954.0308
2023-05-10T08:02:26.407Z,954.0277
2023-05-10T08:03:27.759Z,954.0062
2023-05-10T08:04:29.372Z,953.9723
2023-05-10T08:05:30.535Z,953.9915
2023-05-10T08:06:32.062Z,954.0208
2023-05-10T08:07:33.399Z,954.0523
2023-05-10T08:08:34.796Z,954.0530
2023-05-10T08:09:36.447Z,954.0839
2023-05-10T08:10:37.708Z,954.0638
2023-05-10T08:11:39.092Z,954.0247
2023-05-10T08:12:40.622Z,954.0046
2023-05-10T08:13:41.825Z,954.0554
2023-05-10T08:14:43.706Z,954.0477
2023-05-10T08:15:44.798Z,954.0630
2023-05-10T08:16:46.244Z,954.0984
2023-05-10T08:17:47.595Z,954.0900
2023-05-10T08:18:49.118Z,954.0469
2023-05-10T08:19:50.416Z,954.0500
2023-05-10T08:20:51.821Z,954.0739
2023-05-10T08:21:53.357Z,954.0900
2023-05-10T08:22:54.823Z,954.1093
2023-05-10T08:23:56.245Z,954.1277
2023-05-10T08:24:57.669Z,954.1447
2023-05-10T08:25:59.034Z,954.1061
2023-05-10T08:27:00.496Z,954.0638
2023-05-10T08:28:01.876Z,954.0646
2023-05-10T08:29:03.291Z,954.1008
2023-05-10T08:30:04.726Z,954.1154
2023-05-10T08:31:06.289Z,954.1161
2023-05-10T08:32:07.623Z,954.1331
2023-05-10T08:33:08.985Z,954.1516
2023-05-10T08:34:10.417Z,954.1061
2023-05-10T08:35:11.841Z,954.1085
2023-05-10T08:36:13.355Z,954.1008
2023-05-10T08:37:14.792Z,954.1262
2023-05-10T08:38:16.098Z,954.1400
2023-05-10T08:39:29.383Z,954.1461
2023-05-10T08:40:19.071Z,954.1833
2023-05-10T08:41:20.440Z,954.0962
2023-05-10T08:42:22.185Z,954.0839
2023-05-10T08:43:23.225Z,954.0916
2023-05-10T08:44:24.689Z,954.1115
2023-05-10T08:45:26.196Z,954.1477
2023-05-10T08:46:27.715Z,954.1715
2023-05-10T08:47:29.053Z,954.2084
2023-05-10T08:48:30.726Z,954.2446
2023-05-10T08:49:32.011Z,954.2169
2023-05-10T08:50:33.432Z,954.1646
2023-05-10T08:51:34.835Z,954.1715
2023-05-10T08:52:36.446Z,954.2092
2023-05-10T08:53:37.695Z,954.2377
2023-05-10T08:54:39.080Z,954.2639
2023-05-10T08:55:40.321Z,954.2777
2023-05-10T08:56:42.055Z,954.3069
2023-05-10T08:57:43.373Z,954.3085
2023-05-10T08:58:44.722Z,954.2646
2023-05-10T08:59:46.221Z,954.2723
2023-05-10T09:00:48.158Z,954.3046
2023-05-10T09:01:49.124Z,954.3323
2023-05-10T09:02:50.689Z,954.3500
2023-05-10T09:03:51.811Z,954.3638
2023-05-10T09:04:53.354Z,954.3877
2023-05-10T09:05:54.729Z,954.3908
2023-05-10T09:06:56.194Z,954.3869
2023-05-10T09:07:57.533Z,954.3446
2023-05-10T09:08:59.291Z,954.3347
2023-05-10T09:10:00.372Z,954.3746
2023-05-10T09:11:01.761Z,954.3923
2023-05-10T09:12:03.305Z,954.3992
2023-05-10T09:13:04.840Z,954.4123
2023-05-10T09:14:06.045Z,954.3915
2023-05-10T09:15:07.460Z,954.3500
2023-05-10T09:16:20.439Z,954.3477
2023-05-10T09:17:10.503Z,954.3725
2023-05-10T09:18:11.857Z,954.3915
2023-05-10T09:19:13.385Z,954.4131
2023-05-10T09:20:14.494Z,954.4285
2023-05-10T09:21:16.217Z,954.4215
2023-05-10T09:22:17.456Z,954.3869
2023-05-10T09:23:18.761Z,954.3531
2023-05-10T09:24:20.348Z,954.3815
2023-05-10T09:25:21.793Z,954.4054
2023-05-10T09:26:23.058Z,954.4246
2023-05-10T09:27:24.776Z,954.4508
2023-05-10T09:28:26.133Z,954.4515
2023-05-10T09:29:27.615Z,954.4100
2023-05-10T09:30:28.786Z,954.3700
2023-05-10T09:31:30.589Z,954.3585
2023-05-10T09:32:31.779Z,954.3785
2023-05-10T09:33:33.402Z,954.3900
2023-05-10T09:34:34.531Z,954.4269
2023-05-10T09:35:35.848Z,954.4415
2023-05-10T09:36:37.707Z,954.4438
2023-05-10T09:37:38.679Z,954.3962
2023-05-10T09:38:40.405Z,954.3600
2023-05-10T09:39:41.631Z,954.3469
2023-05-10T09:40:43.038Z,954.3454
2023-05-10T09:41:44.532Z,954.3777
2023-05-10T09:42:46.231Z,954.3800
2023-05-10T09:43:47.525Z,954.3877
2023-05-10T09:44:49.109Z,954.4008
2023-05-10T09:45:50.174Z,954.3400
2023-05-10T09:46:51.746Z,954.3362
2023-05-10T09:47:53.214Z,954.3292
2023-05-10T09:48:54.503Z,954.3561
2023-05-10T09:49:55.864Z,954.3923
2023-05-10T09:50:57.395Z,954.4354
2023-05-10T09:51:58.822Z,954.4438
2023-05-10T09:53:00.195Z,954.3807
2023-05-10T09:54:01.683Z,954.3677
2023-05-10T09:55:02.993Z,954.3669
2023-05-10T09:56:04.514Z,954.3900
2023-05-10T09:57:05.931Z,954.4185
2023-05-10T09:58:07.360Z,954.4400
2023-05-10T09:59:08.895Z,954.4600
2023-05-10T10:00:10.143Z,954.4154
2023-05-10T10:01:12.015Z,954.3608
2023-05-10T10:02:13.186Z,954.3323
2023-05-10T10:03:14.457Z,954.3546
2023-05-10T10:04:15.916Z,954.3608
2023-05-10T10:05:17.717Z,954.3723
2023-05-10T10:06:26.802Z,954.3985
2023-05-10T10:07:20.180Z,954.3925
2023-05-10T10:08:22.334Z,954.3423
2023-05-10T10:09:23.210Z,954.3223
2023-05-10T10:10:24.336Z,954.3561
2023-05-10T10:11:25.782Z,954.3862
2023-05-10T10:12:27.338Z,954.3962
2023-05-10T10:13:28.900Z,954.4362
2023-05-10T10:14:30.250Z,954.4400
2023-05-10T10:15:31.555Z,954.4046
2023-05-10T10:16:33.023Z,954.3623
2023-05-10T10:17:34.394Z,954.3685
2023-05-10T10:18:35.781Z,954.3977
2023-05-10T10:19:37.604Z,954.4238
2023-05-10T10:20:38.587Z,954.4585
2023-05-10T10:21:40.161Z,954.4623
2023-05-10T10:22:41.494Z,954.4338
2023-05-10T10:23:43.074Z,954.3785
2023-05-10T10:24:44.508Z,954.3508
2023-05-10T10:25:45.814Z,954.3700
2023-05-10T10:26:47.262Z,954.4061
2023-05-10T10:27:48.604Z,954.4169
2023-05-10T10:28:50.323Z,954.4423
2023-05-10T10:29:51.511Z,954.4193
2023-05-10T10:30:53.041Z,954.3815
2023-05-10T10:31:54.297Z,954.3654
2023-05-10T10:32:55.699Z,954.3815
2023-05-10T10:33:57.176Z,954.4238
2023-05-10T10:34:58.738Z,954.4423
2023-05-10T10:35:59.968Z,954.4523
2023-05-10T10:37:01.445Z,954.4308
2023-05-10T10:38:02.859Z,954.3815
2023-05-10T10:39:04.607Z,954.3585
2023-05-10T10:40:05.714Z,954.3592
2023-05-10T10:41:07.176Z,954.3685
2023-05-10T10:42:08.454Z,954.3877
2023-05-10T10:43:10.154Z,954.4054
2023-05-10T10:44:11.735Z,954.3908
2023-05-10T10:45:12.903Z,954.3484
2023-05-10T10:46:14.284Z,954.3170
2023-05-10T10:47:15.625Z,954.3307
2023-05-10T10:48:17.092Z,954.3661
2023-05-10T10:49:18.611Z,954.3900
2023-05-10T10:50:20.035Z,954.4254
2023-05-10T10:51:21.342Z,954.4177
2023-05-10T10:52:22.788Z,954.3592
2023-05-10T10:53:24.281Z,954.3431
2023-05-10T10:54:25.716Z,954.3492
2023-05-10T10:55:27.197Z,954.3638
2023-05-10T10:56:28.480Z,954.3862
2023-05-10T10:57:29.910Z,954.4161
2023-05-10T10:58:31.257Z,954.3862
2023-05-10T10:59:32.734Z,954.3646
2023-05-10T11:00:34.220Z,954.3362
2023-05-10T11:01:35.700Z,954.3454
2023-05-10T11:02:37.105Z,954.3600
2023-05-10T11:03:38.400Z,954.4000
2023-05-10T11:04:40.122Z,954.3962
2023-05-10T11:05:41.527Z,954.3770
2023-05-10T11:06:42.617Z,954.3346
2023-05-10T11:07:44.413Z,954.3100
2023-05-10T11:08:45.746Z,954.3270
2023-05-10T11:09:48.166Z,954.3346
2023-05-10T11:10:48.642Z,954.3631
2023-05-10T11:11:50.230Z,954.3846
2023-05-10T11:12:51.142Z,954.3538
2023-05-10T11:13:52.663Z,954.3369
2023-05-10T11:14:54.038Z,954.3215
2023-05-10T11:15:55.528Z,954.3454
2023-05-10T11:16:56.924Z,954.3654
2023-05-10T11:17:58.340Z,954.3577
2023-05-10T11:18:59.771Z,954.3270
2023-05-10T11:20:01.170Z,954.2900
2023-05-10T11:21:02.664Z,954.2546
2023-05-10T11:22:04.069Z,954.2538
2023-05-10T11:23:05.432Z,954.2885
2023-05-10T11:24:07.103Z,954.3069
2023-05-10T11:25:08.500Z,954.2923
2023-05-10T11:26:09.582Z,954.2800
2023-05-10T11:27:11.069Z,954.2708
2023-05-10T11:28:12.466Z,954.2677
2023-05-10T11:29:13.976Z,954.2869
2023-05-10T11:30:15.877Z,954.3077
2023-05-10T11:31:16.945Z,954.2969
2023-05-10T11:32:18.161Z,954.2777
2023-05-10T11:33:19.610Z,954.2454
2023-05-10T11:34:20.992Z,954.2430
2023-05-10T11:35:22.446Z,954.2831
2023-05-10T11:36:23.871Z,954.3092
2023-05-10T11:37:25.305Z,954.3461
2023-05-10T11:38:26.735Z,954.3339
2023-05-10T11:39:28.106Z,954.2900
2023-05-10T11:40:29.548Z,954.2677
2023-05-10T11:41:31.093Z,954.2623
2023-05-10T11:42:32.340Z,954.2861
2023-05-10T11:43:33.984Z,954.2961
2023-05-10T11:44:35.294Z,954.3254
2023-05-10T11:45:36.633Z,954.3339
2023-05-10T11:46:38.446Z,954.2600
2023-05-10T11:47:40.794Z,954.2423
2023-05-10T11:48:40.970Z,954.2608
2023-05-10T11:49:42.316Z,954.2938
2023-05-10T11:50:43.884Z,954.3162
2023-05-10T11:51:45.198Z,954.3484
2023-05-10T11:52:46.941Z,954.3423
2023-05-10T11:53:48.048Z,954.2746
2023-05-10T11:54:49.474Z,954.2477
2023-05-10T11:55:50.931Z,954.2692
2023-05-10T11:56:52.398Z,954.2954
2023-05-10T11:57:54.115Z,954.3115
2023-05-10T11:58:55.142Z,954.3553
2023-05-10T11:59:56.659Z,954.3400
2023-05-10T12:00:57.995Z,954.3031